Date,TemperatureHighF,TemperatureAvgF,TemperatureLowF,DewpointHighF,DewpointAvgF,DewpointLowF,HumidityHigh,HumidityAvg,HumidityLow,PressureMaxIn,PressureMinIn,WindSpeedMaxMPH,WindSpeedAvgMPH,GustSpeedMaxMPH,PrecipitationSumIn
2013-5-1,76,56,35,-100,-100,-100,0,0,100,0.00,40.00,0,-999,0,0.00
2013-5-2,80,55,38,-100,-100,-100,0,0,100,0.00,40.00,0,-999,0,0.00
2013-5-3,67,51,34,-100,-100,-100,0,0,100,0.00,40.00,0,-999,0,0.00
2013-5-4,72,53,38,-100,-100,-100,0,0,100,0.00,40.00,0,-999,0,0.00
2013-5-5,71,50,31,-100,-100,-100,0,0,100,0.00,40.00,0,-999,0,0.00
2013-5-6,76,53,32,-100,-100,-100,0,0,100,0.00,40.00,0,-999,0,0.00
2013-5-7,81,62,40,-100,-100,-100,0,0,100,0.00,40.00,0,-999,0,0.00
2013-5-8,74,62,50,-100,-100,-100,0,0,100,0.00,40.00,0,-999,0,0.08
2013-5-9,63,60,56,-100,-100,-100,0,0,100,0.00,40.00,0,-999,0,0.22
2013-5-10,80,66,56,-100,-100,-100,0,0,100,0.00,40.00,0,-999,0,0.02
2013-5-11,66,62,58,-100,-100,-100,0,0,100,0.00,40.00,0,-999,0,0.35
2013-5-12,69,59,45,-100,-100,-100,0,0,100,0.00,40.00,0,-999,0,0.17
2013-5-13,55,47,39,-100,-100,-100,0,0,100,0.00,40.00,0,-999,0,0.01
2013-5-14,59,47,33,-100,-100,-100,0,0,100,0.00,40.00,0,-999,0,0.00
2013-5-15,65,46,31,-100,-100,-100,0,0,100,0.00,40.00,0,-999,0,0.07
2013-5-16,80,60,44,-100,-100,-100,0,0,100,0.00,40.00,0,-999,0,0.01
2013-5-17,68,55,44,-100,-100,-100,0,0,100,0.00,40.00,0,-999,0,0.01
2013-5-18,73,56,40,-100,-100,-100,0,0,100,0.00,40.00,0,-999,0,0.00
2013-5-19,69,55,48,-100,-100,-100,0,0,100,0.00,40.00,0,-999,0,0.09
2013-5-20,78,64,53,-100,-100,-100,0,0,100,0.00,40.00,0,-999,0,0.15
2013-5-21,76,59,51,-100,-100,-100,0,0,100,0.00,40.00,0,-999,0,0.20
2013-5-22,61,55,50,-100,-100,-100,0,0,100,0.00,40.00,0,-999,0,1.26
2013-5-23,70,60,52,-100,-100,-100,0,0,100,0.00,40.00,0,-999,0,0.25
2013-5-24,70,61,47,-100,-100,-100,0,0,100,0.00,40.00,0,-999,0,0.34
2013-5-25,48,45,35,-100,-100,-100,0,0,100,0.00,40.00,0,-999,0,0.93
2013-5-26,55,45,35,-100,-100,-100,0,0,100,0.00,40.00,0,-999,0,0.36
2013-5-27,69,53,35,-100,-100,-100,0,0,100,0.00,40.00,0,-999,0,0.01
2013-5-28,73,56,37,-100,-100,-100,0,0,100,0.00,40.00,0,-999,0,0.00
2013-5-29,62,57,50,-100,-100,-100,0,0,100,0.00,40.00,0,-999,0,0.16
2013-5-30,87,71,57,-100,-100,-100,0,0,100,0.00,40.00,0,-999,0,0.07
2013-5-31,93,75,58,-100,-100,-100,0,0,100,0.00,40.00,0,-999,0,0.01